sensor_id;sensor_type;location;lat;lon;timestamp;P1;durP1;ratioP1;P2;durP2;ratioP2
65825;SDS011;52586;-43.152;172.732;2023-04-01T00:01:32;4.35;;;2.17;;
65825;SDS011;52586;-43.152;172.732;2023-04-01T00:04:05;2.30;;;1.70;;
65825;SDS011;52586;-43.152;172.732;2023-04-01T00:06:36;3.28;;;1.83;;
65825;SDS011;52586;-43.152;172.732;2023-04-01T00:09:06;4.93;;;2.05;;
65825;SDS011;52586;-43.152;172.732;2023-04-01T00:11:37;3.58;;;1.75;;
65825;SDS011;52586;-43.152;172.732;2023-04-01T00:14:08;3.78;;;1.88;;
65825;SDS011;52586;-43.152;172.732;2023-04-01T00:16:38;3.50;;;1.98;;
65825;SDS011;52586;-43.152;172.732;2023-04-01T00:19:11;2.70;;;1.77;;
65825;SDS011;52586;-43.152;172.732;2023-04-01T00:21:42;3.20;;;1.85;;
65825;SDS011;52586;-43.152;172.732;2023-04-01T00:24:12;3.30;;;1.58;;
65825;SDS011;52586;-43.152;172.732;2023-04-01T00:26:43;3.58;;;1.67;;
65825;SDS011;52586;-43.152;172.732;2023-04-01T00:29:14;2.17;;;1.60;;
65825;SDS011;52586;-43.152;172.732;2023-04-01T00:31:44;3.55;;;1.80;;
65825;SDS011;52586;-43.152;172.732;2023-04-01T00:34:17;3.53;;;1.73;;
65825;SDS011;52586;-43.152;172.732;2023-04-01T00:36:48;2.53;;;2.08;;
65825;SDS011;52586;-43.152;172.732;2023-04-01T00:39:18;3.97;;;1.90;;
65825;SDS011;52586;-43.152;172.732;2023-04-01T00:41:49;2.42;;;1.75;;
65825;SDS011;52586;-43.152;172.732;2023-04-01T00:44:24;3.00;;;1.83;;
65825;SDS011;52586;-43.152;172.732;2023-04-01T00:46:56;2.60;;;1.75;;
65825;SDS011;52586;-43.152;172.732;2023-04-01T00:49:28;3.05;;;1.80;;
65825;SDS011;52586;-43.152;172.732;2023-04-01T00:52:02;2.53;;;1.60;;
65825;SDS011;52586;-43.152;172.732;2023-04-01T00:54:34;1.83;;;1.40;;
65825;SDS011;52586;-43.152;172.732;2023-04-01T00:57:08;3.55;;;1.75;;
65825;SDS011;52586;-43.152;172.732;2023-04-01T00:59:42;3.33;;;1.73;;
65825;SDS011;52586;-43.152;172.732;2023-04-01T01:02:15;2.08;;;1.60;;
65825;SDS011;52586;-43.152;172.732;2023-04-01T01:04:49;3.33;;;1.77;;
65825;SDS011;52586;-43.152;172.732;2023-04-01T01:07:22;3.20;;;1.60;;
65825;SDS011;52586;-43.152;172.732;2023-04-01T01:10:05;2.88;;;1.63;;
65825;SDS011;52586;-43.152;172.732;2023-04-01T01:12:40;2.75;;;1.70;;
65825;SDS011;52586;-43.152;172.732;2023-04-01T01:15:24;2.08;;;1.58;;
65825;SDS011;52586;-43.152;172.732;2023-04-01T01:17:57;2.83;;;1.63;;
65825;SDS011;52586;-43.152;172.732;2023-04-01T01:20:44;2.17;;;1.50;;
65825;SDS011;52586;-43.152;172.732;2023-04-01T01:23:43;2.70;;;1.52;;
65825;SDS011;52586;-43.152;172.732;2023-04-01T01:26:41;1.90;;;1.23;;
65825;SDS011;52586;-43.152;172.732;2023-04-01T01:29:43;2.35;;;1.90;;
65825;SDS011;52586;-43.152;172.732;2023-04-01T01:32:34;2.45;;;1.55;;
65825;SDS011;52586;-43.152;172.732;2023-04-01T01:35:19;1.90;;;1.50;;
65825;SDS011;52586;-43.152;172.732;2023-04-01T01:37:53;3.20;;;1.80;;
65825;SDS011;52586;-43.152;172.732;2023-04-01T01:40:29;2.70;;;1.85;;
65825;SDS011;52586;-43.152;172.732;2023-04-01T01:43:03;1.92;;;1.40;;
65825;SDS011;52586;-43.152;172.732;2023-04-01T01:45:38;2.25;;;1.60;;
65825;SDS011;52586;-43.152;172.732;2023-04-01T01:48:13;2.15;;;1.48;;
65825;SDS011;52586;-43.152;172.732;2023-04-01T01:50:48;2.30;;;1.35;;
65825;SDS011;52586;-43.152;172.732;2023-04-01T01:53:19;3.47;;;1.58;;
65825;SDS011;52586;-43.152;172.732;2023-04-01T01:55:50;2.35;;;1.50;;
65825;SDS011;52586;-43.152;172.732;2023-04-01T01:58:22;1.92;;;1.42;;
65825;SDS011;52586;-43.152;172.732;2023-04-01T02:00:56;1.88;;;1.55;;
65825;SDS011;52586;-43.152;172.732;2023-04-01T02:03:29;3.70;;;1.67;;
65825;SDS011;52586;-43.152;172.732;2023-04-01T02:06:05;1.83;;;1.30;;
65825;SDS011;52586;-43.152;172.732;2023-04-01T02:08:39;1.45;;;1.13;;
65825;SDS011;52586;-43.152;172.732;2023-04-01T02:11:12;3.17;;;1.63;;
65825;SDS011;52586;-43.152;172.732;2023-04-01T02:13:45;2.80;;;1.50;;
65825;SDS011;52586;-43.152;172.732;2023-04-01T02:16:21;3.17;;;1.80;;
65825;SDS011;52586;-43.152;172.732;2023-04-01T02:18:56;2.15;;;1.33;;
65825;SDS011;52586;-43.152;172.732;2023-04-01T02:21:30;2.00;;;1.30;;
65825;SDS011;52586;-43.152;172.732;2023-04-01T02:24:02;2.63;;;1.52;;
65825;SDS011;52586;-43.152;172.732;2023-04-01T02:26:36;3.22;;;1.40;;
65825;SDS011;52586;-43.152;172.732;2023-04-01T02:29:07;2.55;;;1.58;;
65825;SDS011;52586;-43.152;172.732;2023-04-01T02:31:40;2.75;;;1.30;;
65825;SDS011;52586;-43.152;172.732;2023-04-01T02:34:12;1.30;;;1.10;;
65825;SDS011;52586;-43.152;172.732;2023-04-01T02:36:45;1.85;;;1.25;;
65825;SDS011;52586;-43.152;172.732;2023-04-01T02:39:16;3.33;;;1.60;;
65825;SDS011;52586;-43.152;172.732;2023-04-01T02:41:47;2.63;;;1.27;;
65825;SDS011;52586;-43.152;172.732;2023-04-01T02:44:18;1.88;;;1.52;;
65825;SDS011;52586;-43.152;172.732;2023-04-01T02:46:49;3.03;;;1.33;;
65825;SDS011;52586;-43.152;172.732;2023-04-01T02:49:19;2.25;;;1.15;;
65825;SDS011;52586;-43.152;172.732;2023-04-01T02:51:52;1.73;;;1.20;;
65825;SDS011;52586;-43.152;172.732;2023-04-01T02:54:23;2.65;;;1.30;;
65825;SDS011;52586;-43.152;172.732;2023-04-01T02:56:53;1.80;;;1.25;;
65825;SDS011;52586;-43.152;172.732;2023-04-01T02:59:24;1.30;;;1.20;;
65825;SDS011;52586;-43.152;172.732;2023-04-01T03:01:54;2.35;;;1.35;;
65825;SDS011;52586;-43.152;172.732;2023-04-01T03:04:25;1.88;;;1.00;;
65825;SDS011;52586;-43.152;172.732;2023-04-01T03:06:58;1.17;;;0.90;;
65825;SDS011;52586;-43.152;172.732;2023-04-01T03:09:28;1.27;;;1.02;;
65825;SDS011;52586;-43.152;172.732;2023-04-01T03:11:59;2.10;;;1.20;;
65825;SDS011;52586;-43.152;172.732;2023-04-01T03:14:30;2.58;;;1.00;;
65825;SDS011;52586;-43.152;172.732;2023-04-01T03:17:00;1.80;;;0.90;;
65825;SDS011;52586;-43.152;172.732;2023-04-01T03:19:31;1.33;;;0.88;;
65825;SDS011;52586;-43.152;172.732;2023-04-01T03:22:04;0.52;;;0.40;;
65825;SDS011;52586;-43.152;172.732;2023-04-01T03:24:34;0.45;;;0.35;;
65825;SDS011;52586;-43.152;172.732;2023-04-01T03:27:05;0.70;;;0.30;;
65825;SDS011;52586;-43.152;172.732;2023-04-01T03:29:36;0.50;;;0.30;;
65825;SDS011;52586;-43.152;172.732;2023-04-01T03:32:06;1.90;;;0.60;;
65825;SDS011;52586;-43.152;172.732;2023-04-01T03:34:37;0.30;;;0.20;;
65825;SDS011;52586;-43.152;172.732;2023-04-01T03:37:10;2.83;;;0.47;;
65825;SDS011;52586;-43.152;172.732;2023-04-01T03:39:40;0.20;;;0.20;;
65825;SDS011;52586;-43.152;172.732;2023-04-01T03:42:11;0.55;;;0.30;;
65825;SDS011;52586;-43.152;172.732;2023-04-01T03:44:42;0.20;;;0.20;;
65825;SDS011;52586;-43.152;172.732;2023-04-01T03:47:13;0.65;;;0.30;;
65825;SDS011;52586;-43.152;172.732;2023-04-01T03:49:43;0.43;;;0.43;;
65825;SDS011;52586;-43.152;172.732;2023-04-01T03:52:16;0.32;;;0.30;;
65825;SDS011;52586;-43.152;172.732;2023-04-01T03:54:46;3.60;;;0.50;;
65825;SDS011;52586;-43.152;172.732;2023-04-01T03:57:17;0.50;;;0.32;;
65825;SDS011;52586;-43.152;172.732;2023-04-01T03:59:48;0.35;;;0.28;;
65825;SDS011;52586;-43.152;172.732;2023-04-01T04:02:18;0.30;;;0.30;;
65825;SDS011;52586;-43.152;172.732;2023-04-01T04:04:49;0.30;;;0.30;;
65825;SDS011;52586;-43.152;172.732;2023-04-01T04:07:22;0.20;;;0.20;;
65825;SDS011;52586;-43.152;172.732;2023-04-01T04:09:52;0.60;;;0.45;;
65825;SDS011;52586;-43.152;172.732;2023-04-01T04:12:23;0.77;;;0.40;;
65825;SDS011;52586;-43.152;172.732;2023-04-01T04:14:54;0.73;;;0.50;;
65825;SDS011;52586;-43.152;172.732;2023-04-01T04:17:24;0.52;;;0.35;;
65825;SDS011;52586;-43.152;172.732;2023-04-01T04:19:55;0.60;;;0.40;;
65825;SDS011;52586;-43.152;172.732;2023-04-01T04:22:27;0.60;;;0.40;;
65825;SDS011;52586;-43.152;172.732;2023-04-01T04:24:58;1.92;;;0.40;;
65825;SDS011;52586;-43.152;172.732;2023-04-01T04:27:29;0.30;;;0.30;;
65825;SDS011;52586;-43.152;172.732;2023-04-01T04:29:59;1.05;;;0.40;;
65825;SDS011;52586;-43.152;172.732;2023-04-01T04:32:30;0.95;;;0.30;;
65825;SDS011;52586;-43.152;172.732;2023-04-01T04:35:01;0.85;;;0.30;;
65825;SDS011;52586;-43.152;172.732;2023-04-01T04:37:34;1.52;;;0.30;;
65825;SDS011;52586;-43.152;172.732;2023-04-01T04:40:05;0.25;;;0.20;;
65825;SDS011;52586;-43.152;172.732;2023-04-01T04:42:36;1.05;;;0.30;;
65825;SDS011;52586;-43.152;172.732;2023-04-01T04:45:07;0.15;;;0.15;;
65825;SDS011;52586;-43.152;172.732;2023-04-01T04:47:39;0.30;;;0.30;;
65825;SDS011;52586;-43.152;172.732;2023-04-01T04:50:10;1.23;;;0.38;;
65825;SDS011;52586;-43.152;172.732;2023-04-01T04:52:42;0.20;;;0.20;;
65825;SDS011;52586;-43.152;172.732;2023-04-01T04:55:13;0.47;;;0.30;;
65825;SDS011;52586;-43.152;172.732;2023-04-01T04:57:44;0.88;;;0.30;;
65825;SDS011;52586;-43.152;172.732;2023-04-01T05:00:14;0.32;;;0.30;;
65825;SDS011;52586;-43.152;172.732;2023-04-01T05:02:45;1.35;;;0.40;;
65825;SDS011;52586;-43.152;172.732;2023-04-01T05:05:16;0.85;;;0.40;;
65825;SDS011;52586;-43.152;172.732;2023-04-01T05:07:49;0.50;;;0.30;;
65825;SDS011;52586;-43.152;172.732;2023-04-01T05:10:19;0.40;;;0.20;;
65825;SDS011;52586;-43.152;172.732;2023-04-01T05:12:50;0.30;;;0.30;;
65825;SDS011;52586;-43.152;172.732;2023-04-01T05:15:21;1.98;;;0.52;;
65825;SDS011;52586;-43.152;172.732;2023-04-01T05:17:51;0.73;;;0.30;;
65825;SDS011;52586;-43.152;172.732;2023-04-01T05:20:22;0.77;;;0.40;;
65825;SDS011;52586;-43.152;172.732;2023-04-01T05:22:57;0.40;;;0.30;;
65825;SDS011;52586;-43.152;172.732;2023-04-01T05:25:28;0.57;;;0.38;;
65825;SDS011;52586;-43.152;172.732;2023-04-01T05:27:59;0.20;;;0.20;;
65825;SDS011;52586;-43.152;172.732;2023-04-01T05:30:29;0.57;;;0.28;;
65825;SDS011;52586;-43.152;172.732;2023-04-01T05:33:00;0.60;;;0.38;;
65825;SDS011;52586;-43.152;172.732;2023-04-01T05:35:31;1.15;;;0.40;;
65825;SDS011;52586;-43.152;172.732;2023-04-01T05:38:03;0.55;;;0.30;;
65825;SDS011;52586;-43.152;172.732;2023-04-01T05:40:34;0.40;;;0.40;;
65825;SDS011;52586;-43.152;172.732;2023-04-01T05:43:05;0.38;;;0.30;;
65825;SDS011;52586;-43.152;172.732;2023-04-01T05:45:35;0.38;;;0.20;;
65825;SDS011;52586;-43.152;172.732;2023-04-01T05:48:06;0.63;;;0.30;;
65825;SDS011;52586;-43.152;172.732;2023-04-01T05:50:37;0.45;;;0.40;;
65825;SDS011;52586;-43.152;172.732;2023-04-01T05:53:11;0.45;;;0.38;;
65825;SDS011;52586;-43.152;172.732;2023-04-01T05:55:42;0.77;;;0.40;;
65825;SDS011;52586;-43.152;172.732;2023-04-01T05:58:13;0.57;;;0.20;;
65825;SDS011;52586;-43.152;172.732;2023-04-01T06:00:43;0.30;;;0.30;;
65825;SDS011;52586;-43.152;172.732;2023-04-01T06:03:14;1.13;;;0.38;;
65825;SDS011;52586;-43.152;172.732;2023-04-01T06:05:45;0.60;;;0.28;;
65825;SDS011;52586;-43.152;172.732;2023-04-01T06:08:17;0.30;;;0.20;;
65825;SDS011;52586;-43.152;172.732;2023-04-01T06:10:52;0.93;;;0.40;;
65825;SDS011;52586;-43.152;172.732;2023-04-01T06:13:45;0.98;;;0.43;;
65825;SDS011;52586;-43.152;172.732;2023-04-01T06:16:28;0.77;;;0.40;;
65825;SDS011;52586;-43.152;172.732;2023-04-01T06:19:13;1.35;;;0.40;;
65825;SDS011;52586;-43.152;172.732;2023-04-01T06:25:02;1.92;;;0.40;;
65825;SDS011;52586;-43.152;172.732;2023-04-01T06:28:02;0.65;;;0.35;;
65825;SDS011;52586;-43.152;172.732;2023-04-01T06:30:53;1.08;;;0.32;;
65825;SDS011;52586;-43.152;172.732;2023-04-01T06:33:37;2.05;;;0.38;;
65825;SDS011;52586;-43.152;172.732;2023-04-01T06:36:27;0.50;;;0.22;;
65825;SDS011;52586;-43.152;172.732;2023-04-01T06:42:25;0.45;;;0.38;;
65825;SDS011;52586;-43.152;172.732;2023-04-01T06:45:08;0.88;;;0.32;;
65825;SDS011;52586;-43.152;172.732;2023-04-01T06:47:49;3.47;;;0.40;;
65825;SDS011;52586;-43.152;172.732;2023-04-01T06:50:29;0.93;;;0.20;;
65825;SDS011;52586;-43.152;172.732;2023-04-01T06:53:05;0.68;;;0.30;;
65825;SDS011;52586;-43.152;172.732;2023-04-01T06:55:42;0.63;;;0.22;;
65825;SDS011;52586;-43.152;172.732;2023-04-01T06:58:18;0.63;;;0.30;;
65825;SDS011;52586;-43.152;172.732;2023-04-01T07:00:51;0.47;;;0.30;;
65825;SDS011;52586;-43.152;172.732;2023-04-01T07:03:29;0.75;;;0.60;;
65825;SDS011;52586;-43.152;172.732;2023-04-01T07:06:02;0.57;;;0.30;;
65825;SDS011;52586;-43.152;172.732;2023-04-01T07:08:35;0.30;;;0.30;;
65825;SDS011;52586;-43.152;172.732;2023-04-01T07:11:09;0.25;;;0.25;;
65825;SDS011;52586;-43.152;172.732;2023-04-01T07:13:47;0.45;;;0.40;;
65825;SDS011;52586;-43.152;172.732;2023-04-01T07:16:23;0.63;;;0.20;;
65825;SDS011;52586;-43.152;172.732;2023-04-01T07:18:59;0.73;;;0.28;;
65825;SDS011;52586;-43.152;172.732;2023-04-01T07:21:35;0.50;;;0.28;;
65825;SDS011;52586;-43.152;172.732;2023-04-01T07:24:10;0.65;;;0.30;;
65825;SDS011;52586;-43.152;172.732;2023-04-01T07:26:46;1.42;;;0.25;;
65825;SDS011;52586;-43.152;172.732;2023-04-01T07:29:20;0.20;;;0.20;;
65825;SDS011;52586;-43.152;172.732;2023-04-01T07:32:00;1.08;;;0.28;;
65825;SDS011;52586;-43.152;172.732;2023-04-01T07:34:44;0.98;;;0.30;;
65825;SDS011;52586;-43.152;172.732;2023-04-01T07:37:26;0.75;;;0.30;;
65825;SDS011;52586;-43.152;172.732;2023-04-01T07:40:03;1.75;;;0.20;;
65825;SDS011;52586;-43.152;172.732;2023-04-01T07:42:48;0.22;;;0.22;;
65825;SDS011;52586;-43.152;172.732;2023-04-01T07:45:33;0.30;;;0.20;;
65825;SDS011;52586;-43.152;172.732;2023-04-01T07:48:11;0.30;;;0.30;;
65825;SDS011;52586;-43.152;172.732;2023-04-01T07:50:55;0.50;;;0.30;;
65825;SDS011;52586;-43.152;172.732;2023-04-01T07:53:31;0.88;;;0.30;;
65825;SDS011;52586;-43.152;172.732;2023-04-01T07:56:07;0.40;;;0.30;;
65825;SDS011;52586;-43.152;172.732;2023-04-01T07:58:43;0.75;;;0.30;;
65825;SDS011;52586;-43.152;172.732;2023-04-01T08:01:27;0.45;;;0.22;;
65825;SDS011;52586;-43.152;172.732;2023-04-01T08:04:12;0.93;;;0.30;;
65825;SDS011;52586;-43.152;172.732;2023-04-01T08:06:54;0.43;;;0.30;;
65825;SDS011;52586;-43.152;172.732;2023-04-01T08:09:32;0.30;;;0.15;;
65825;SDS011;52586;-43.152;172.732;2023-04-01T08:12:12;0.45;;;0.30;;
65825;SDS011;52586;-43.152;172.732;2023-04-01T08:14:56;0.30;;;0.30;;
65825;SDS011;52586;-43.152;172.732;2023-04-01T08:17:39;0.40;;;0.40;;
65825;SDS011;52586;-43.152;172.732;2023-04-01T08:20:23;1.25;;;0.50;;
65825;SDS011;52586;-43.152;172.732;2023-04-01T08:22:59;0.50;;;0.50;;
65825;SDS011;52586;-43.152;172.732;2023-04-01T08:25:37;0.93;;;0.40;;
65825;SDS011;52586;-43.152;172.732;2023-04-01T08:28:10;0.93;;;0.40;;
65825;SDS011;52586;-43.152;172.732;2023-04-01T08:30:47;0.43;;;0.30;;
65825;SDS011;52586;-43.152;172.732;2023-04-01T08:33:24;0.60;;;0.22;;
65825;SDS011;52586;-43.152;172.732;2023-04-01T08:35:57;0.45;;;0.30;;
65825;SDS011;52586;-43.152;172.732;2023-04-01T08:38:32;0.60;;;0.30;;
65825;SDS011;52586;-43.152;172.732;2023-04-01T08:44:11;0.32;;;0.30;;
65825;SDS011;52586;-43.152;172.732;2023-04-01T08:47:10;0.93;;;0.40;;
65825;SDS011;52586;-43.152;172.732;2023-04-01T08:50:08;0.85;;;0.40;;
65825;SDS011;52586;-43.152;172.732;2023-04-01T08:53:03;0.55;;;0.30;;
65825;SDS011;52586;-43.152;172.732;2023-04-01T08:55:44;0.80;;;0.40;;
65825;SDS011;52586;-43.152;172.732;2023-04-01T08:58:29;0.70;;;0.40;;
65825;SDS011;52586;-43.152;172.732;2023-04-01T09:01:14;1.05;;;0.30;;
65825;SDS011;52586;-43.152;172.732;2023-04-01T09:03:58;0.77;;;0.40;;
65825;SDS011;52586;-43.152;172.732;2023-04-01T09:07:06;0.75;;;0.50;;
65825;SDS011;52586;-43.152;172.732;2023-04-01T09:13:10;0.55;;;0.32;;
65825;SDS011;52586;-43.152;172.732;2023-04-01T09:19:08;0.75;;;0.40;;
65825;SDS011;52586;-43.152;172.732;2023-04-01T09:27:51;0.20;;;0.20;;
65825;SDS011;52586;-43.152;172.732;2023-04-01T09:30:32;0.38;;;0.38;;
65825;SDS011;52586;-43.152;172.732;2023-04-01T09:33:17;0.25;;;0.25;;
65825;SDS011;52586;-43.152;172.732;2023-04-01T09:36:14;1.00;;;0.35;;
65825;SDS011;52586;-43.152;172.732;2023-04-01T09:38:58;0.60;;;0.30;;
65825;SDS011;52586;-43.152;172.732;2023-04-01T09:41:41;0.60;;;0.20;;
65825;SDS011;52586;-43.152;172.732;2023-04-01T09:44:25;0.30;;;0.30;;
65825;SDS011;52586;-43.152;172.732;2023-04-01T09:47:09;0.30;;;0.30;;
65825;SDS011;52586;-43.152;172.732;2023-04-01T09:50:03;0.57;;;0.30;;
65825;SDS011;52586;-43.152;172.732;2023-04-01T09:52:55;0.60;;;0.28;;
65825;SDS011;52586;-43.152;172.732;2023-04-01T09:55:55;0.52;;;0.38;;
65825;SDS011;52586;-43.152;172.732;2023-04-01T10:01:57;0.45;;;0.30;;
65825;SDS011;52586;-43.152;172.732;2023-04-01T10:05:26;0.60;;;0.30;;
65825;SDS011;52586;-43.152;172.732;2023-04-01T10:08:26;0.30;;;0.30;;
65825;SDS011;52586;-43.152;172.732;2023-04-01T10:14:38;0.65;;;0.35;;
65825;SDS011;52586;-43.152;172.732;2023-04-01T10:17:52;0.30;;;0.20;;
65825;SDS011;52586;-43.152;172.732;2023-04-01T10:20:54;0.90;;;0.40;;
65825;SDS011;52586;-43.152;172.732;2023-04-01T10:29:57;0.73;;;0.30;;
65825;SDS011;52586;-43.152;172.732;2023-04-01T10:36:19;1.05;;;0.30;;
65825;SDS011;52586;-43.152;172.732;2023-04-01T10:48:38;0.57;;;0.25;;
65825;SDS011;52586;-43.152;172.732;2023-04-01T10:51:46;0.40;;;0.30;;
65825;SDS011;52586;-43.152;172.732;2023-04-01T10:54:43;1.08;;;0.40;;
65825;SDS011;52586;-43.152;172.732;2023-04-01T10:57:33;0.90;;;0.40;;
65825;SDS011;52586;-43.152;172.732;2023-04-01T11:00:32;1.10;;;0.50;;
65825;SDS011;52586;-43.152;172.732;2023-04-01T11:19:38;0.70;;;0.40;;
65825;SDS011;52586;-43.152;172.732;2023-04-01T11:22:42;0.60;;;0.40;;
65825;SDS011;52586;-43.152;172.732;2023-04-01T11:25:40;0.38;;;0.30;;
65825;SDS011;52586;-43.152;172.732;2023-04-01T11:28:35;0.40;;;0.30;;
65825;SDS011;52586;-43.152;172.732;2023-04-01T11:31:25;0.32;;;0.22;;
65825;SDS011;52586;-43.152;172.732;2023-04-01T11:34:05;0.45;;;0.30;;
65825;SDS011;52586;-43.152;172.732;2023-04-01T11:37:13;0.30;;;0.30;;
65825;SDS011;52586;-43.152;172.732;2023-04-01T11:39:59;0.20;;;0.20;;
65825;SDS011;52586;-43.152;172.732;2023-04-01T11:42:43;0.60;;;0.40;;
65825;SDS011;52586;-43.152;172.732;2023-04-01T11:45:23;1.17;;;0.38;;
65825;SDS011;52586;-43.152;172.732;2023-04-01T11:48:08;0.73;;;0.40;;
65825;SDS011;52586;-43.152;172.732;2023-04-01T11:50:58;0.82;;;0.38;;
65825;SDS011;52586;-43.152;172.732;2023-04-01T11:53:42;1.75;;;0.40;;
65825;SDS011;52586;-43.152;172.732;2023-04-01T11:56:30;0.32;;;0.22;;
65825;SDS011;52586;-43.152;172.732;2023-04-01T12:02:15;0.30;;;0.30;;
65825;SDS011;52586;-43.152;172.732;2023-04-01T12:04:58;0.57;;;0.30;;
65825;SDS011;52586;-43.152;172.732;2023-04-01T12:08:04;0.50;;;0.40;;
65825;SDS011;52586;-43.152;172.732;2023-04-01T12:10:41;1.08;;;0.38;;
65825;SDS011;52586;-43.152;172.732;2023-04-01T12:13:27;0.50;;;0.30;;
65825;SDS011;52586;-43.152;172.732;2023-04-01T12:19:13;0.30;;;0.20;;
65825;SDS011;52586;-43.152;172.732;2023-04-01T12:21:51;0.75;;;0.20;;
65825;SDS011;52586;-43.152;172.732;2023-04-01T12:24:46;0.40;;;0.30;;
65825;SDS011;52586;-43.152;172.732;2023-04-01T12:27:29;1.02;;;0.30;;
65825;SDS011;52586;-43.152;172.732;2023-04-01T12:33:43;0.45;;;0.40;;
65825;SDS011;52586;-43.152;172.732;2023-04-01T12:42:10;0.30;;;0.30;;
65825;SDS011;52586;-43.152;172.732;2023-04-01T12:44:52;0.40;;;0.40;;
65825;SDS011;52586;-43.152;172.732;2023-04-01T12:47:37;0.30;;;0.20;;
65825;SDS011;52586;-43.152;172.732;2023-04-01T12:50:30;0.40;;;0.30;;
65825;SDS011;52586;-43.152;172.732;2023-04-01T12:53:21;0.43;;;0.30;;
65825;SDS011;52586;-43.152;172.732;2023-04-01T12:56:07;0.43;;;0.30;;
65825;SDS011;52586;-43.152;172.732;2023-04-01T12:58:48;0.73;;;0.20;;
65825;SDS011;52586;-43.152;172.732;2023-04-01T13:01:52;0.30;;;0.30;;
65825;SDS011;52586;-43.152;172.732;2023-04-01T13:05:01;0.17;;;0.17;;
65825;SDS011;52586;-43.152;172.732;2023-04-01T13:07:56;0.45;;;0.30;;
65825;SDS011;52586;-43.152;172.732;2023-04-01T13:10:55;0.30;;;0.20;;
65825;SDS011;52586;-43.152;172.732;2023-04-01T13:13:59;0.30;;;0.20;;
65825;SDS011;52586;-43.152;172.732;2023-04-01T13:16:43;0.20;;;0.20;;
65825;SDS011;52586;-43.152;172.732;2023-04-01T13:19:23;0.20;;;0.20;;
65825;SDS011;52586;-43.152;172.732;2023-04-01T13:21:58;0.28;;;0.20;;
65825;SDS011;52586;-43.152;172.732;2023-04-01T13:24:39;0.70;;;0.22;;
65825;SDS011;52586;-43.152;172.732;2023-04-01T13:27:17;0.50;;;0.35;;
65825;SDS011;52586;-43.152;172.732;2023-04-01T13:30:02;0.40;;;0.28;;
65825;SDS011;52586;-43.152;172.732;2023-04-01T13:32:46;0.40;;;0.30;;
65825;SDS011;52586;-43.152;172.732;2023-04-01T13:35:21;0.47;;;0.30;;
65825;SDS011;52586;-43.152;172.732;2023-04-01T13:38:03;0.20;;;0.20;;
65825;SDS011;52586;-43.152;172.732;2023-04-01T13:40:57;0.28;;;0.20;;
65825;SDS011;52586;-43.152;172.732;2023-04-01T13:43:37;0.20;;;0.20;;
65825;SDS011;52586;-43.152;172.732;2023-04-01T13:46:24;0.25;;;0.25;;
65825;SDS011;52586;-43.152;172.732;2023-04-01T13:49:11;0.30;;;0.30;;
65825;SDS011;52586;-43.152;172.732;2023-04-01T13:52:10;0.50;;;0.30;;
65825;SDS011;52586;-43.152;172.732;2023-04-01T13:54:58;0.13;;;0.13;;
65825;SDS011;52586;-43.152;172.732;2023-04-01T13:57:55;0.90;;;0.28;;
65825;SDS011;52586;-43.152;172.732;2023-04-01T14:00:41;0.47;;;0.28;;
65825;SDS011;52586;-43.152;172.732;2023-04-01T14:03:42;0.32;;;0.30;;
65825;SDS011;52586;-43.152;172.732;2023-04-01T14:06:31;0.20;;;0.20;;
65825;SDS011;52586;-43.152;172.732;2023-04-01T14:09:11;1.00;;;0.30;;
65825;SDS011;52586;-43.152;172.732;2023-04-01T14:11:59;0.30;;;0.20;;
65825;SDS011;52586;-43.152;172.732;2023-04-01T14:14:40;0.60;;;0.30;;
65825;SDS011;52586;-43.152;172.732;2023-04-01T14:17:23;0.20;;;0.20;;
65825;SDS011;52586;-43.152;172.732;2023-04-01T14:20:23;0.43;;;0.25;;
65825;SDS011;52586;-43.152;172.732;2023-04-01T14:23:05;0.20;;;0.20;;
65825;SDS011;52586;-43.152;172.732;2023-04-01T14:25:56;0.40;;;0.22;;
65825;SDS011;52586;-43.152;172.732;2023-04-01T14:28:40;0.63;;;0.30;;
65825;SDS011;52586;-43.152;172.732;2023-04-01T14:31:23;0.32;;;0.30;;
65825;SDS011;52586;-43.152;172.732;2023-04-01T14:34:06;0.35;;;0.30;;
65825;SDS011;52586;-43.152;172.732;2023-04-01T14:36:50;0.30;;;0.30;;
65825;SDS011;52586;-43.152;172.732;2023-04-01T14:39:35;0.20;;;0.20;;
65825;SDS011;52586;-43.152;172.732;2023-04-01T14:42:21;0.57;;;0.30;;
65825;SDS011;52586;-43.152;172.732;2023-04-01T14:48:17;0.20;;;0.20;;
65825;SDS011;52586;-43.152;172.732;2023-04-01T14:50:55;0.30;;;0.20;;
65825;SDS011;52586;-43.152;172.732;2023-04-01T14:53:34;0.45;;;0.38;;
65825;SDS011;52586;-43.152;172.732;2023-04-01T14:56:11;0.10;;;0.10;;
65825;SDS011;52586;-43.152;172.732;2023-04-01T14:59:04;0.20;;;0.20;;
65825;SDS011;52586;-43.152;172.732;2023-04-01T15:01:46;0.73;;;0.17;;
65825;SDS011;52586;-43.152;172.732;2023-04-01T15:04:37;0.30;;;0.22;;
65825;SDS011;52586;-43.152;172.732;2023-04-01T15:13:24;0.40;;;0.30;;
65825;SDS011;52586;-43.152;172.732;2023-04-01T15:16:12;0.32;;;0.28;;
65825;SDS011;52586;-43.152;172.732;2023-04-01T15:18:53;0.63;;;0.35;;
65825;SDS011;52586;-43.152;172.732;2023-04-01T15:21:47;0.60;;;0.32;;
65825;SDS011;52586;-43.152;172.732;2023-04-01T15:24:46;0.30;;;0.30;;
65825;SDS011;52586;-43.152;172.732;2023-04-01T15:27:28;0.20;;;0.20;;
65825;SDS011;52586;-43.152;172.732;2023-04-01T15:30:14;0.20;;;0.20;;
65825;SDS011;52586;-43.152;172.732;2023-04-01T15:33:08;0.50;;;0.20;;
65825;SDS011;52586;-43.152;172.732;2023-04-01T15:35:49;0.20;;;0.20;;
65825;SDS011;52586;-43.152;172.732;2023-04-01T15:38:33;0.32;;;0.30;;
65825;SDS011;52586;-43.152;172.732;2023-04-01T15:41:14;0.20;;;0.20;;
65825;SDS011;52586;-43.152;172.732;2023-04-01T15:43:50;0.35;;;0.20;;
65825;SDS011;52586;-43.152;172.732;2023-04-01T15:46:24;0.30;;;0.30;;
65825;SDS011;52586;-43.152;172.732;2023-04-01T15:49:07;0.32;;;0.25;;
65825;SDS011;52586;-43.152;172.732;2023-04-01T15:51:58;0.20;;;0.20;;
65825;SDS011;52586;-43.152;172.732;2023-04-01T15:54:49;0.22;;;0.22;;
65825;SDS011;52586;-43.152;172.732;2023-04-01T15:57:39;0.38;;;0.28;;
65825;SDS011;52586;-43.152;172.732;2023-04-01T16:00:28;0.20;;;0.20;;
65825;SDS011;52586;-43.152;172.732;2023-04-01T16:03:17;0.10;;;0.10;;
65825;SDS011;52586;-43.152;172.732;2023-04-01T16:06:08;0.30;;;0.20;;
65825;SDS011;52586;-43.152;172.732;2023-04-01T16:09:07;0.10;;;0.10;;
65825;SDS011;52586;-43.152;172.732;2023-04-01T16:11:56;0.30;;;0.22;;
65825;SDS011;52586;-43.152;172.732;2023-04-01T16:14:35;0.20;;;0.20;;
65825;SDS011;52586;-43.152;172.732;2023-04-01T16:17:23;0.20;;;0.20;;
65825;SDS011;52586;-43.152;172.732;2023-04-01T16:20:06;0.20;;;0.20;;
65825;SDS011;52586;-43.152;172.732;2023-04-01T16:22:49;0.10;;;0.10;;
65825;SDS011;52586;-43.152;172.732;2023-04-01T16:25:32;0.22;;;0.20;;
65825;SDS011;52586;-43.152;172.732;2023-04-01T16:28:16;0.30;;;0.20;;
65825;SDS011;52586;-43.152;172.732;2023-04-01T16:30:55;0.20;;;0.20;;
65825;SDS011;52586;-43.152;172.732;2023-04-01T16:33:32;0.20;;;0.20;;
65825;SDS011;52586;-43.152;172.732;2023-04-01T16:36:10;0.30;;;0.30;;
65825;SDS011;52586;-43.152;172.732;2023-04-01T16:38:50;0.20;;;0.20;;
65825;SDS011;52586;-43.152;172.732;2023-04-01T16:41:36;0.20;;;0.20;;
65825;SDS011;52586;-43.152;172.732;2023-04-01T16:44:20;0.32;;;0.32;;
65825;SDS011;52586;-43.152;172.732;2023-04-01T16:46:53;0.20;;;0.20;;
65825;SDS011;52586;-43.152;172.732;2023-04-01T16:49:36;0.35;;;0.25;;
65825;SDS011;52586;-43.152;172.732;2023-04-01T16:52:14;0.20;;;0.20;;